Terminal Aerodrome Forecast
Issued by NWS

Current Version | Previous Version | Text Only | Print | Product List | Glossary On
Versions: 1 2 3 4 5 6 7 8 9 10 11 12 13 14 15 16 17 18
000
FTUS42 KTBW 251514 AAB
TAFRSW
TAF AMD
KRSW 251514Z 2515/2612 24011KT P6SM SCT025 BKN040
      TEMPO 2515/2517 6SM SHRA BKN025
     FM252200 26009KT P6SM SCT250
     FM260200 VRB04KT P6SM SCT250
     FM261100 03004KT P6SM FEW025 SCT250=

USA.gov is the U.S. government's official web portal to all federal, state and local government web resources and services.